sensor_id;sensor_type;location;lat;lon;timestamp;P1;durP1;ratioP1;P2;durP2;ratioP2
47053;SDS011;32811;52.382;5.270;2023-06-10T00:00:59;4.53;;;2.92;;
47053;SDS011;32811;52.382;5.270;2023-06-10T00:03:26;4.55;;;2.58;;
47053;SDS011;32811;52.382;5.270;2023-06-10T00:05:53;11.43;;;3.00;;
47053;SDS011;32811;52.382;5.270;2023-06-10T00:08:19;5.82;;;2.67;;
47053;SDS011;32811;52.382;5.270;2023-06-10T00:10:46;7.10;;;2.60;;
47053;SDS011;32811;52.382;5.270;2023-06-10T00:13:13;7.05;;;2.97;;
47053;SDS011;32811;52.382;5.270;2023-06-10T00:15:39;4.47;;;2.17;;
47053;SDS011;32811;52.382;5.270;2023-06-10T00:18:06;6.55;;;2.55;;
47053;SDS011;32811;52.382;5.270;2023-06-10T00:20:36;3.83;;;2.70;;
47053;SDS011;32811;52.382;5.270;2023-06-10T00:23:04;7.28;;;2.83;;
47053;SDS011;32811;52.382;5.270;2023-06-10T00:25:32;8.55;;;2.97;;
47053;SDS011;32811;52.382;5.270;2023-06-10T00:27:59;4.80;;;2.35;;
47053;SDS011;32811;52.382;5.270;2023-06-10T00:30:26;3.95;;;2.45;;
47053;SDS011;32811;52.382;5.270;2023-06-10T00:32:53;11.48;;;2.95;;
47053;SDS011;32811;52.382;5.270;2023-06-10T00:35:19;5.63;;;2.67;;
47053;SDS011;32811;52.382;5.270;2023-06-10T00:37:46;5.35;;;2.70;;
47053;SDS011;32811;52.382;5.270;2023-06-10T00:40:14;4.13;;;2.40;;
47053;SDS011;32811;52.382;5.270;2023-06-10T00:42:40;6.28;;;3.10;;
47053;SDS011;32811;52.382;5.270;2023-06-10T00:45:07;3.88;;;2.28;;
47053;SDS011;32811;52.382;5.270;2023-06-10T00:47:35;5.57;;;2.55;;
47053;SDS011;32811;52.382;5.270;2023-06-10T00:50:02;8.13;;;3.20;;
47053;SDS011;32811;52.382;5.270;2023-06-10T00:52:29;6.00;;;2.97;;
47053;SDS011;32811;52.382;5.270;2023-06-10T00:54:56;4.05;;;2.47;;
47053;SDS011;32811;52.382;5.270;2023-06-10T00:57:25;8.63;;;2.75;;
47053;SDS011;32811;52.382;5.270;2023-06-10T00:59:54;5.85;;;3.05;;
47053;SDS011;32811;52.382;5.270;2023-06-10T01:02:20;7.85;;;2.88;;
47053;SDS011;32811;52.382;5.270;2023-06-10T01:04:47;9.15;;;2.63;;
47053;SDS011;32811;52.382;5.270;2023-06-10T01:09:59;5.43;;;2.85;;
47053;SDS011;32811;52.382;5.270;2023-06-10T01:15:05;6.82;;;3.00;;
47053;SDS011;32811;52.382;5.270;2023-06-10T01:17:32;12.02;;;3.38;;
47053;SDS011;32811;52.382;5.270;2023-06-10T01:19:59;5.80;;;2.95;;
47053;SDS011;32811;52.382;5.270;2023-06-10T01:22:26;10.90;;;3.05;;
47053;SDS011;32811;52.382;5.270;2023-06-10T01:25:03;8.07;;;2.75;;
47053;SDS011;32811;52.382;5.270;2023-06-10T01:27:30;7.63;;;2.78;;
47053;SDS011;32811;52.382;5.270;2023-06-10T01:30:08;6.20;;;4.00;;
47053;SDS011;32811;52.382;5.270;2023-06-10T01:32:34;7.50;;;3.42;;
47053;SDS011;32811;52.382;5.270;2023-06-10T01:35:06;10.13;;;3.47;;
47053;SDS011;32811;52.382;5.270;2023-06-10T01:37:35;10.13;;;3.47;;
47053;SDS011;32811;52.382;5.270;2023-06-10T01:40:05;8.77;;;3.78;;
47053;SDS011;32811;52.382;5.270;2023-06-10T01:42:32;10.23;;;4.03;;
47053;SDS011;32811;52.382;5.270;2023-06-10T01:44:59;4.85;;;2.95;;
47053;SDS011;32811;52.382;5.270;2023-06-10T01:47:26;5.05;;;3.60;;
47053;SDS011;32811;52.382;5.270;2023-06-10T01:49:53;6.13;;;3.05;;
47053;SDS011;32811;52.382;5.270;2023-06-10T01:52:19;4.53;;;2.92;;
47053;SDS011;32811;52.382;5.270;2023-06-10T01:54:46;9.40;;;3.33;;
47053;SDS011;32811;52.382;5.270;2023-06-10T01:57:13;7.00;;;3.28;;
47053;SDS011;32811;52.382;5.270;2023-06-10T01:59:39;5.50;;;3.30;;
47053;SDS011;32811;52.382;5.270;2023-06-10T02:02:06;9.55;;;3.25;;
47053;SDS011;32811;52.382;5.270;2023-06-10T02:04:33;5.40;;;3.38;;
47053;SDS011;32811;52.382;5.270;2023-06-10T02:06:59;14.10;;;3.10;;
47053;SDS011;32811;52.382;5.270;2023-06-10T02:09:30;4.80;;;3.17;;
47053;SDS011;32811;52.382;5.270;2023-06-10T02:11:57;9.27;;;3.65;;
47053;SDS011;32811;52.382;5.270;2023-06-10T02:14:24;7.07;;;3.50;;
47053;SDS011;32811;52.382;5.270;2023-06-10T02:16:51;5.47;;;3.53;;
47053;SDS011;32811;52.382;5.270;2023-06-10T02:19:18;10.25;;;3.03;;
47053;SDS011;32811;52.382;5.270;2023-06-10T02:21:44;7.07;;;3.13;;
47053;SDS011;32811;52.382;5.270;2023-06-10T02:24:11;6.70;;;3.72;;
47053;SDS011;32811;52.382;5.270;2023-06-10T02:26:38;5.20;;;3.58;;
47053;SDS011;32811;52.382;5.270;2023-06-10T02:29:04;6.55;;;3.65;;
47053;SDS011;32811;52.382;5.270;2023-06-10T02:31:31;7.80;;;3.38;;
47053;SDS011;32811;52.382;5.270;2023-06-10T02:33:58;6.70;;;3.78;;
47053;SDS011;32811;52.382;5.270;2023-06-10T02:36:24;9.32;;;4.72;;
47053;SDS011;32811;52.382;5.270;2023-06-10T02:38:54;5.95;;;3.45;;
47053;SDS011;32811;52.382;5.270;2023-06-10T02:41:21;9.63;;;3.33;;
47053;SDS011;32811;52.382;5.270;2023-06-10T02:43:47;7.63;;;4.05;;
47053;SDS011;32811;52.382;5.270;2023-06-10T02:46:14;6.10;;;3.53;;
47053;SDS011;32811;52.382;5.270;2023-06-10T02:48:41;6.05;;;3.00;;
47053;SDS011;32811;52.382;5.270;2023-06-10T02:51:10;7.47;;;3.40;;
47053;SDS011;32811;52.382;5.270;2023-06-10T02:53:37;6.88;;;3.72;;
47053;SDS011;32811;52.382;5.270;2023-06-10T02:56:04;9.13;;;3.13;;
47053;SDS011;32811;52.382;5.270;2023-06-10T02:58:31;4.00;;;3.38;;
47053;SDS011;32811;52.382;5.270;2023-06-10T03:00:57;12.27;;;3.55;;
47053;SDS011;32811;52.382;5.270;2023-06-10T03:03:24;6.68;;;3.38;;
47053;SDS011;32811;52.382;5.270;2023-06-10T03:05:52;5.75;;;3.20;;
47053;SDS011;32811;52.382;5.270;2023-06-10T03:08:18;7.35;;;2.80;;
47053;SDS011;32811;52.382;5.270;2023-06-10T03:10:45;9.27;;;4.18;;
47053;SDS011;32811;52.382;5.270;2023-06-10T03:13:11;7.15;;;3.58;;
47053;SDS011;32811;52.382;5.270;2023-06-10T03:15:38;8.07;;;4.00;;
47053;SDS011;32811;52.382;5.270;2023-06-10T03:18:07;8.73;;;4.30;;
47053;SDS011;32811;52.382;5.270;2023-06-10T03:20:34;6.63;;;3.65;;
47053;SDS011;32811;52.382;5.270;2023-06-10T03:23:06;5.30;;;3.25;;
47053;SDS011;32811;52.382;5.270;2023-06-10T03:25:32;5.35;;;3.85;;
47053;SDS011;32811;52.382;5.270;2023-06-10T03:27:59;7.03;;;4.13;;
47053;SDS011;32811;52.382;5.270;2023-06-10T03:30:27;7.40;;;3.20;;
47053;SDS011;32811;52.382;5.270;2023-06-10T03:32:54;5.22;;;3.15;;
47053;SDS011;32811;52.382;5.270;2023-06-10T03:35:20;7.30;;;3.83;;
47053;SDS011;32811;52.382;5.270;2023-06-10T03:37:47;8.73;;;3.30;;
47053;SDS011;32811;52.382;5.270;2023-06-10T03:40:14;9.90;;;4.10;;
47053;SDS011;32811;52.382;5.270;2023-06-10T03:42:40;5.65;;;3.28;;
47053;SDS011;32811;52.382;5.270;2023-06-10T03:45:07;8.02;;;4.00;;
47053;SDS011;32811;52.382;5.270;2023-06-10T03:47:36;5.38;;;2.70;;
47053;SDS011;32811;52.382;5.270;2023-06-10T03:50:04;5.22;;;3.55;;
47053;SDS011;32811;52.382;5.270;2023-06-10T03:52:31;10.68;;;4.78;;
47053;SDS011;32811;52.382;5.270;2023-06-10T03:54:57;13.32;;;3.65;;
47053;SDS011;32811;52.382;5.270;2023-06-10T03:57:24;5.18;;;3.25;;
47053;SDS011;32811;52.382;5.270;2023-06-10T03:59:51;6.18;;;3.80;;
47053;SDS011;32811;52.382;5.270;2023-06-10T04:02:17;5.88;;;3.47;;
47053;SDS011;32811;52.382;5.270;2023-06-10T04:04:44;5.40;;;3.28;;
47053;SDS011;32811;52.382;5.270;2023-06-10T04:07:11;8.40;;;3.50;;
47053;SDS011;32811;52.382;5.270;2023-06-10T04:09:38;8.35;;;3.40;;
47053;SDS011;32811;52.382;5.270;2023-06-10T04:12:05;7.72;;;3.30;;
47053;SDS011;32811;52.382;5.270;2023-06-10T04:14:36;5.97;;;3.78;;
47053;SDS011;32811;52.382;5.270;2023-06-10T04:17:04;7.75;;;3.63;;
47053;SDS011;32811;52.382;5.270;2023-06-10T04:19:34;4.88;;;3.22;;
47053;SDS011;32811;52.382;5.270;2023-06-10T04:22:01;5.05;;;3.67;;
47053;SDS011;32811;52.382;5.270;2023-06-10T04:24:31;7.32;;;3.90;;
47053;SDS011;32811;52.382;5.270;2023-06-10T04:26:58;8.27;;;4.53;;
47053;SDS011;32811;52.382;5.270;2023-06-10T04:29:24;5.82;;;3.45;;
47053;SDS011;32811;52.382;5.270;2023-06-10T04:31:51;11.23;;;3.58;;
47053;SDS011;32811;52.382;5.270;2023-06-10T04:34:19;7.55;;;4.20;;
47053;SDS011;32811;52.382;5.270;2023-06-10T04:36:45;7.93;;;4.10;;
47053;SDS011;32811;52.382;5.270;2023-06-10T04:39:12;4.75;;;3.30;;
47053;SDS011;32811;52.382;5.270;2023-06-10T04:41:39;7.88;;;3.65;;
47053;SDS011;32811;52.382;5.270;2023-06-10T04:44:06;5.03;;;3.65;;
47053;SDS011;32811;52.382;5.270;2023-06-10T04:46:33;7.63;;;3.95;;
47053;SDS011;32811;52.382;5.270;2023-06-10T04:48:59;10.40;;;3.90;;
47053;SDS011;32811;52.382;5.270;2023-06-10T04:51:27;5.38;;;3.78;;
47053;SDS011;32811;52.382;5.270;2023-06-10T04:53:54;6.55;;;3.67;;
47053;SDS011;32811;52.382;5.270;2023-06-10T04:56:21;6.88;;;3.42;;
47053;SDS011;32811;52.382;5.270;2023-06-10T04:58:48;9.43;;;4.05;;
47053;SDS011;32811;52.382;5.270;2023-06-10T05:01:15;10.38;;;4.07;;
47053;SDS011;32811;52.382;5.270;2023-06-10T05:03:41;6.47;;;3.30;;
47053;SDS011;32811;52.382;5.270;2023-06-10T05:06:08;5.55;;;3.25;;
47053;SDS011;32811;52.382;5.270;2023-06-10T05:08:35;7.35;;;3.53;;
47053;SDS011;32811;52.382;5.270;2023-06-10T05:11:02;6.03;;;3.40;;
47053;SDS011;32811;52.382;5.270;2023-06-10T05:13:29;7.72;;;3.88;;
47053;SDS011;32811;52.382;5.270;2023-06-10T05:15:56;9.40;;;3.45;;
47053;SDS011;32811;52.382;5.270;2023-06-10T05:18:22;11.15;;;4.15;;
47053;SDS011;32811;52.382;5.270;2023-06-10T05:20:49;7.28;;;4.13;;
47053;SDS011;32811;52.382;5.270;2023-06-10T05:23:16;7.40;;;4.00;;
47053;SDS011;32811;52.382;5.270;2023-06-10T05:25:42;12.88;;;4.78;;
47053;SDS011;32811;52.382;5.270;2023-06-10T05:28:09;7.70;;;4.00;;
47053;SDS011;32811;52.382;5.270;2023-06-10T05:30:39;10.20;;;3.72;;
47053;SDS011;32811;52.382;5.270;2023-06-10T05:33:06;6.63;;;3.90;;
47053;SDS011;32811;52.382;5.270;2023-06-10T05:35:33;9.13;;;4.15;;
47053;SDS011;32811;52.382;5.270;2023-06-10T05:37:59;10.23;;;3.13;;
47053;SDS011;32811;52.382;5.270;2023-06-10T05:40:29;7.07;;;3.42;;
47053;SDS011;32811;52.382;5.270;2023-06-10T05:42:55;11.98;;;4.15;;
47053;SDS011;32811;52.382;5.270;2023-06-10T05:45:22;6.88;;;3.97;;
47053;SDS011;32811;52.382;5.270;2023-06-10T05:47:49;6.38;;;3.65;;
47053;SDS011;32811;52.382;5.270;2023-06-10T05:50:15;8.95;;;3.95;;
47053;SDS011;32811;52.382;5.270;2023-06-10T05:52:42;5.90;;;3.00;;
47053;SDS011;32811;52.382;5.270;2023-06-10T05:55:09;10.13;;;3.65;;
47053;SDS011;32811;52.382;5.270;2023-06-10T05:57:37;6.90;;;3.90;;
47053;SDS011;32811;52.382;5.270;2023-06-10T06:00:03;9.70;;;3.40;;
47053;SDS011;32811;52.382;5.270;2023-06-10T06:02:31;7.57;;;3.70;;
47053;SDS011;32811;52.382;5.270;2023-06-10T06:04:57;11.18;;;3.95;;
47053;SDS011;32811;52.382;5.270;2023-06-10T06:07:24;5.75;;;3.42;;
47053;SDS011;32811;52.382;5.270;2023-06-10T06:09:51;8.75;;;3.38;;
47053;SDS011;32811;52.382;5.270;2023-06-10T06:12:17;6.00;;;3.60;;
47053;SDS011;32811;52.382;5.270;2023-06-10T06:14:44;7.78;;;3.80;;
47053;SDS011;32811;52.382;5.270;2023-06-10T06:17:11;7.82;;;3.58;;
47053;SDS011;32811;52.382;5.270;2023-06-10T06:19:37;7.97;;;3.42;;
47053;SDS011;32811;52.382;5.270;2023-06-10T06:22:04;7.93;;;3.60;;
47053;SDS011;32811;52.382;5.270;2023-06-10T06:24:31;6.25;;;4.45;;
47053;SDS011;32811;52.382;5.270;2023-06-10T06:26:57;9.27;;;3.63;;
47053;SDS011;32811;52.382;5.270;2023-06-10T06:29:24;9.85;;;4.15;;
47053;SDS011;32811;52.382;5.270;2023-06-10T06:31:51;9.02;;;3.60;;
47053;SDS011;32811;52.382;5.270;2023-06-10T06:34:18;5.22;;;3.22;;
47053;SDS011;32811;52.382;5.270;2023-06-10T06:36:44;8.38;;;4.03;;
47053;SDS011;32811;52.382;5.270;2023-06-10T06:39:11;12.82;;;3.90;;
47053;SDS011;32811;52.382;5.270;2023-06-10T06:41:38;8.80;;;3.85;;
47053;SDS011;32811;52.382;5.270;2023-06-10T06:44:04;5.63;;;3.40;;
47053;SDS011;32811;52.382;5.270;2023-06-10T06:46:31;11.35;;;3.70;;
47053;SDS011;32811;52.382;5.270;2023-06-10T06:48:58;7.93;;;3.45;;
47053;SDS011;32811;52.382;5.270;2023-06-10T06:51:24;6.68;;;4.07;;
47053;SDS011;32811;52.382;5.270;2023-06-10T06:53:51;5.90;;;4.10;;
47053;SDS011;32811;52.382;5.270;2023-06-10T06:56:20;5.35;;;3.95;;
47053;SDS011;32811;52.382;5.270;2023-06-10T06:58:47;5.25;;;3.15;;
47053;SDS011;32811;52.382;5.270;2023-06-10T07:01:14;6.13;;;3.58;;
47053;SDS011;32811;52.382;5.270;2023-06-10T07:03:41;7.28;;;3.17;;
47053;SDS011;32811;52.382;5.270;2023-06-10T07:06:07;4.95;;;3.15;;
47053;SDS011;32811;52.382;5.270;2023-06-10T07:08:34;7.47;;;3.58;;
47053;SDS011;32811;52.382;5.270;2023-06-10T07:11:01;6.40;;;3.65;;
47053;SDS011;32811;52.382;5.270;2023-06-10T07:13:27;8.75;;;3.67;;
47053;SDS011;32811;52.382;5.270;2023-06-10T07:15:54;11.93;;;3.65;;
47053;SDS011;32811;52.382;5.270;2023-06-10T07:18:21;5.93;;;3.10;;
47053;SDS011;32811;52.382;5.270;2023-06-10T07:20:47;6.60;;;3.95;;
47053;SDS011;32811;52.382;5.270;2023-06-10T07:23:14;5.03;;;2.90;;
47053;SDS011;32811;52.382;5.270;2023-06-10T07:25:41;5.35;;;3.28;;
47053;SDS011;32811;52.382;5.270;2023-06-10T07:28:08;6.40;;;3.20;;
47053;SDS011;32811;52.382;5.270;2023-06-10T07:30:34;10.55;;;3.65;;
47053;SDS011;32811;52.382;5.270;2023-06-10T07:33:01;4.88;;;2.97;;
47053;SDS011;32811;52.382;5.270;2023-06-10T07:35:29;10.13;;;3.17;;
47053;SDS011;32811;52.382;5.270;2023-06-10T07:37:55;5.45;;;3.30;;
47053;SDS011;32811;52.382;5.270;2023-06-10T07:40:22;5.30;;;3.53;;
47053;SDS011;32811;52.382;5.270;2023-06-10T07:42:50;9.55;;;3.40;;
47053;SDS011;32811;52.382;5.270;2023-06-10T07:45:16;6.57;;;3.30;;
47053;SDS011;32811;52.382;5.270;2023-06-10T07:47:43;7.50;;;3.42;;
47053;SDS011;32811;52.382;5.270;2023-06-10T07:50:10;8.35;;;3.10;;
47053;SDS011;32811;52.382;5.270;2023-06-10T07:52:36;7.32;;;3.03;;
47053;SDS011;32811;52.382;5.270;2023-06-10T07:55:04;11.68;;;5.28;;
47053;SDS011;32811;52.382;5.270;2023-06-10T07:57:31;4.60;;;3.22;;
47053;SDS011;32811;52.382;5.270;2023-06-10T08:00:01;4.78;;;3.13;;
47053;SDS011;32811;52.382;5.270;2023-06-10T08:02:30;6.38;;;3.15;;
47053;SDS011;32811;52.382;5.270;2023-06-10T08:04:57;7.15;;;3.10;;
47053;SDS011;32811;52.382;5.270;2023-06-10T08:07:24;4.95;;;3.33;;
47053;SDS011;32811;52.382;5.270;2023-06-10T08:09:51;5.88;;;2.90;;
47053;SDS011;32811;52.382;5.270;2023-06-10T08:12:18;4.60;;;3.08;;
47053;SDS011;32811;52.382;5.270;2023-06-10T08:14:45;3.92;;;2.90;;
47053;SDS011;32811;52.382;5.270;2023-06-10T08:17:11;6.70;;;3.25;;
47053;SDS011;32811;52.382;5.270;2023-06-10T08:19:38;6.45;;;3.20;;
47053;SDS011;32811;52.382;5.270;2023-06-10T08:22:05;5.38;;;2.67;;
47053;SDS011;32811;52.382;5.270;2023-06-10T08:24:32;6.22;;;2.85;;
47053;SDS011;32811;52.382;5.270;2023-06-10T08:26:59;17.67;;;3.75;;
47053;SDS011;32811;52.382;5.270;2023-06-10T08:29:25;4.03;;;2.83;;
47053;SDS011;32811;52.382;5.270;2023-06-10T08:31:52;4.70;;;2.65;;
47053;SDS011;32811;52.382;5.270;2023-06-10T08:34:18;5.00;;;2.53;;
47053;SDS011;32811;52.382;5.270;2023-06-10T08:36:45;6.50;;;2.45;;
47053;SDS011;32811;52.382;5.270;2023-06-10T08:39:12;11.40;;;2.88;;
47053;SDS011;32811;52.382;5.270;2023-06-10T08:41:41;6.65;;;3.00;;
47053;SDS011;32811;52.382;5.270;2023-06-10T08:44:17;3.65;;;2.60;;
47053;SDS011;32811;52.382;5.270;2023-06-10T08:46:51;7.00;;;2.78;;
47053;SDS011;32811;52.382;5.270;2023-06-10T08:49:19;7.70;;;3.53;;
47053;SDS011;32811;52.382;5.270;2023-06-10T08:51:58;5.55;;;2.83;;
47053;SDS011;32811;52.382;5.270;2023-06-10T08:54:27;6.45;;;2.55;;
47053;SDS011;32811;52.382;5.270;2023-06-10T08:56:59;7.78;;;3.03;;
47053;SDS011;32811;52.382;5.270;2023-06-10T08:59:26;6.72;;;2.63;;
47053;SDS011;32811;52.382;5.270;2023-06-10T09:01:53;5.85;;;3.10;;
47053;SDS011;32811;52.382;5.270;2023-06-10T09:04:20;13.23;;;3.05;;
47053;SDS011;32811;52.382;5.270;2023-06-10T09:06:48;7.30;;;2.88;;
47053;SDS011;32811;52.382;5.270;2023-06-10T09:09:15;4.15;;;2.20;;
47053;SDS011;32811;52.382;5.270;2023-06-10T09:11:42;8.70;;;4.00;;
47053;SDS011;32811;52.382;5.270;2023-06-10T09:14:09;5.75;;;3.63;;
47053;SDS011;32811;52.382;5.270;2023-06-10T09:16:38;4.05;;;2.58;;
47053;SDS011;32811;52.382;5.270;2023-06-10T09:19:06;4.68;;;2.83;;
47053;SDS011;32811;52.382;5.270;2023-06-10T09:21:34;6.15;;;2.33;;
47053;SDS011;32811;52.382;5.270;2023-06-10T09:24:02;4.88;;;2.45;;
47053;SDS011;32811;52.382;5.270;2023-06-10T09:26:29;4.50;;;2.55;;
47053;SDS011;32811;52.382;5.270;2023-06-10T09:29:03;5.35;;;2.63;;
47053;SDS011;32811;52.382;5.270;2023-06-10T09:31:32;5.15;;;2.63;;
47053;SDS011;32811;52.382;5.270;2023-06-10T09:34:14;6.90;;;2.33;;
47053;SDS011;32811;52.382;5.270;2023-06-10T09:36:42;7.43;;;2.10;;
47053;SDS011;32811;52.382;5.270;2023-06-10T09:39:13;6.30;;;3.25;;
47053;SDS011;32811;52.382;5.270;2023-06-10T09:41:45;6.10;;;1.95;;
47053;SDS011;32811;52.382;5.270;2023-06-10T09:44:16;4.32;;;2.97;;
47053;SDS011;32811;52.382;5.270;2023-06-10T09:46:46;11.63;;;3.90;;
47053;SDS011;32811;52.382;5.270;2023-06-10T09:49:15;4.72;;;2.90;;
47053;SDS011;32811;52.382;5.270;2023-06-10T09:51:52;4.63;;;2.72;;
47053;SDS011;32811;52.382;5.270;2023-06-10T09:54:19;2.83;;;2.05;;
47053;SDS011;32811;52.382;5.270;2023-06-10T09:56:47;3.72;;;2.13;;
47053;SDS011;32811;52.382;5.270;2023-06-10T09:59:15;5.38;;;2.25;;
47053;SDS011;32811;52.382;5.270;2023-06-10T10:01:42;6.80;;;2.83;;
47053;SDS011;32811;52.382;5.270;2023-06-10T10:04:09;6.40;;;2.83;;
47053;SDS011;32811;52.382;5.270;2023-06-10T10:06:36;8.10;;;2.50;;
47053;SDS011;32811;52.382;5.270;2023-06-10T10:09:03;4.10;;;2.08;;
47053;SDS011;32811;52.382;5.270;2023-06-10T10:11:30;8.32;;;2.50;;
47053;SDS011;32811;52.382;5.270;2023-06-10T10:13:59;6.45;;;2.60;;
47053;SDS011;32811;52.382;5.270;2023-06-10T10:16:30;5.35;;;2.70;;
47053;SDS011;32811;52.382;5.270;2023-06-10T10:19:04;5.90;;;2.43;;
47053;SDS011;32811;52.382;5.270;2023-06-10T10:21:40;7.32;;;2.95;;
47053;SDS011;32811;52.382;5.270;2023-06-10T10:24:16;4.53;;;2.33;;
47053;SDS011;32811;52.382;5.270;2023-06-10T10:26:53;5.43;;;2.22;;
47053;SDS011;32811;52.382;5.270;2023-06-10T10:31:51;5.22;;;2.20;;
47053;SDS011;32811;52.382;5.270;2023-06-10T10:34:25;4.28;;;2.22;;
47053;SDS011;32811;52.382;5.270;2023-06-10T10:36:59;6.60;;;2.67;;
47053;SDS011;32811;52.382;5.270;2023-06-10T10:39:26;4.63;;;2.20;;
47053;SDS011;32811;52.382;5.270;2023-06-10T10:41:54;5.32;;;2.30;;
47053;SDS011;32811;52.382;5.270;2023-06-10T10:44:22;2.90;;;2.05;;
47053;SDS011;32811;52.382;5.270;2023-06-10T10:46:50;3.92;;;2.08;;
47053;SDS011;32811;52.382;5.270;2023-06-10T10:49:17;4.28;;;2.28;;
47053;SDS011;32811;52.382;5.270;2023-06-10T10:51:58;4.88;;;1.77;;
47053;SDS011;32811;52.382;5.270;2023-06-10T10:54:29;3.75;;;2.08;;
47053;SDS011;32811;52.382;5.270;2023-06-10T11:02:16;3.33;;;2.30;;
47053;SDS011;32811;52.382;5.270;2023-06-10T11:04:59;5.25;;;2.70;;
47053;SDS011;32811;52.382;5.270;2023-06-10T11:07:28;5.20;;;2.28;;
47053;SDS011;32811;52.382;5.270;2023-06-10T11:10:00;3.72;;;2.63;;
47053;SDS011;32811;52.382;5.270;2023-06-10T11:12:40;3.17;;;2.38;;
47053;SDS011;32811;52.382;5.270;2023-06-10T11:15:06;5.68;;;2.13;;
47053;SDS011;32811;52.382;5.270;2023-06-10T11:17:34;5.65;;;2.25;;
47053;SDS011;32811;52.382;5.270;2023-06-10T11:20:00;7.28;;;2.28;;
47053;SDS011;32811;52.382;5.270;2023-06-10T11:22:27;7.55;;;2.45;;
47053;SDS011;32811;52.382;5.270;2023-06-10T11:24:54;5.50;;;2.42;;
47053;SDS011;32811;52.382;5.270;2023-06-10T11:27:21;6.07;;;1.98;;
47053;SDS011;32811;52.382;5.270;2023-06-10T11:29:57;4.88;;;2.20;;
47053;SDS011;32811;52.382;5.270;2023-06-10T11:32:43;6.95;;;1.80;;
47053;SDS011;32811;52.382;5.270;2023-06-10T11:35:11;8.20;;;2.55;;
47053;SDS011;32811;52.382;5.270;2023-06-10T11:37:38;7.90;;;2.40;;
47053;SDS011;32811;52.382;5.270;2023-06-10T11:40:05;3.50;;;2.17;;
47053;SDS011;32811;52.382;5.270;2023-06-10T11:42:33;4.55;;;1.80;;
47053;SDS011;32811;52.382;5.270;2023-06-10T11:44:59;3.58;;;1.95;;
47053;SDS011;32811;52.382;5.270;2023-06-10T11:47:28;5.18;;;2.22;;
47053;SDS011;32811;52.382;5.270;2023-06-10T11:49:56;3.35;;;1.83;;
47053;SDS011;32811;52.382;5.270;2023-06-10T11:52:26;3.38;;;1.98;;
47053;SDS011;32811;52.382;5.270;2023-06-10T11:54:54;3.00;;;2.03;;
47053;SDS011;32811;52.382;5.270;2023-06-10T11:57:21;6.55;;;2.20;;
47053;SDS011;32811;52.382;5.270;2023-06-10T11:59:48;3.13;;;1.92;;
47053;SDS011;32811;52.382;5.270;2023-06-10T12:02:15;6.57;;;2.28;;
47053;SDS011;32811;52.382;5.270;2023-06-10T12:04:42;6.45;;;2.92;;
47053;SDS011;32811;52.382;5.270;2023-06-10T12:07:16;4.95;;;1.88;;
47053;SDS011;32811;52.382;5.270;2023-06-10T12:09:44;4.75;;;2.20;;
47053;SDS011;32811;52.382;5.270;2023-06-10T12:12:11;4.53;;;2.17;;
47053;SDS011;32811;52.382;5.270;2023-06-10T12:14:57;3.90;;;2.45;;
47053;SDS011;32811;52.382;5.270;2023-06-10T12:19:58;4.43;;;2.03;;
47053;SDS011;32811;52.382;5.270;2023-06-10T12:22:27;2.35;;;2.10;;
47053;SDS011;32811;52.382;5.270;2023-06-10T12:25:02;3.05;;;2.47;;
47053;SDS011;32811;52.382;5.270;2023-06-10T12:27:30;4.32;;;1.98;;
47053;SDS011;32811;52.382;5.270;2023-06-10T12:29:58;4.15;;;2.10;;
47053;SDS011;32811;52.382;5.270;2023-06-10T12:35:09;5.50;;;2.25;;
47053;SDS011;32811;52.382;5.270;2023-06-10T12:37:40;3.88;;;2.15;;
47053;SDS011;32811;52.382;5.270;2023-06-10T12:40:09;5.28;;;2.00;;
47053;SDS011;32811;52.382;5.270;2023-06-10T12:42:37;10.20;;;2.60;;
47053;SDS011;32811;52.382;5.270;2023-06-10T12:45:04;4.35;;;2.65;;
47053;SDS011;32811;52.382;5.270;2023-06-10T12:47:34;5.45;;;2.55;;
47053;SDS011;32811;52.382;5.270;2023-06-10T12:50:05;4.32;;;1.90;;
47053;SDS011;32811;52.382;5.270;2023-06-10T12:52:32;3.20;;;1.83;;
47053;SDS011;32811;52.382;5.270;2023-06-10T12:55:00;4.63;;;2.20;;
47053;SDS011;32811;52.382;5.270;2023-06-10T12:57:27;3.40;;;2.30;;
47053;SDS011;32811;52.382;5.270;2023-06-10T12:59:54;3.88;;;2.30;;
47053;SDS011;32811;52.382;5.270;2023-06-10T13:02:23;2.78;;;2.00;;
47053;SDS011;32811;52.382;5.270;2023-06-10T13:04:50;6.25;;;1.95;;
47053;SDS011;32811;52.382;5.270;2023-06-10T13:07:17;4.85;;;2.42;;
47053;SDS011;32811;52.382;5.270;2023-06-10T13:09:44;3.42;;;2.25;;
47053;SDS011;32811;52.382;5.270;2023-06-10T13:12:11;7.20;;;2.42;;
47053;SDS011;32811;52.382;5.270;2023-06-10T13:14:42;3.42;;;2.00;;
47053;SDS011;32811;52.382;5.270;2023-06-10T13:17:08;3.42;;;2.05;;
47053;SDS011;32811;52.382;5.270;2023-06-10T13:19:35;6.68;;;2.10;;
47053;SDS011;32811;52.382;5.270;2023-06-10T13:22:03;5.90;;;1.77;;
47053;SDS011;32811;52.382;5.270;2023-06-10T13:24:30;6.55;;;2.65;;
47053;SDS011;32811;52.382;5.270;2023-06-10T13:26:56;5.97;;;2.75;;
47053;SDS011;32811;52.382;5.270;2023-06-10T13:29:23;4.93;;;2.72;;
47053;SDS011;32811;52.382;5.270;2023-06-10T13:31:50;3.95;;;2.67;;
47053;SDS011;32811;52.382;5.270;2023-06-10T13:34:17;4.20;;;1.98;;
47053;SDS011;32811;52.382;5.270;2023-06-10T13:36:43;3.75;;;2.10;;
47053;SDS011;32811;52.382;5.270;2023-06-10T13:39:11;4.75;;;1.90;;
47053;SDS011;32811;52.382;5.270;2023-06-10T13:41:38;2.45;;;2.00;;
47053;SDS011;32811;52.382;5.270;2023-06-10T13:44:04;3.35;;;2.13;;
47053;SDS011;32811;52.382;5.270;2023-06-10T13:46:32;4.30;;;1.90;;
47053;SDS011;32811;52.382;5.270;2023-06-10T13:48:59;4.82;;;2.00;;
47053;SDS011;32811;52.382;5.270;2023-06-10T13:51:25;4.63;;;2.25;;
47053;SDS011;32811;52.382;5.270;2023-06-10T13:53:52;3.15;;;2.28;;
47053;SDS011;32811;52.382;5.270;2023-06-10T13:56:19;4.72;;;2.22;;
47053;SDS011;32811;52.382;5.270;2023-06-10T13:58:45;6.70;;;1.88;;
47053;SDS011;32811;52.382;5.270;2023-06-10T14:01:12;3.10;;;1.67;;
47053;SDS011;32811;52.382;5.270;2023-06-10T14:03:39;7.72;;;2.13;;
47053;SDS011;32811;52.382;5.270;2023-06-10T14:06:05;4.53;;;2.17;;
47053;SDS011;32811;52.382;5.270;2023-06-10T14:08:32;4.18;;;2.13;;
47053;SDS011;32811;52.382;5.270;2023-06-10T14:10:59;3.15;;;2.17;;
47053;SDS011;32811;52.382;5.270;2023-06-10T14:13:25;4.38;;;2.10;;
47053;SDS011;32811;52.382;5.270;2023-06-10T14:15:52;5.63;;;1.85;;
47053;SDS011;32811;52.382;5.270;2023-06-10T14:18:18;4.75;;;2.03;;
47053;SDS011;32811;52.382;5.270;2023-06-10T14:20:45;6.07;;;2.55;;
47053;SDS011;32811;52.382;5.270;2023-06-10T14:23:12;2.40;;;1.90;;
47053;SDS011;32811;52.382;5.270;2023-06-10T14:25:38;2.72;;;1.67;;
47053;SDS011;32811;52.382;5.270;2023-06-10T14:28:05;5.70;;;2.10;;
47053;SDS011;32811;52.382;5.270;2023-06-10T14:30:32;3.92;;;1.58;;
47053;SDS011;32811;52.382;5.270;2023-06-10T14:32:58;5.35;;;2.45;;
47053;SDS011;32811;52.382;5.270;2023-06-10T14:35:25;2.88;;;1.70;;
47053;SDS011;32811;52.382;5.270;2023-06-10T14:37:52;4.53;;;1.85;;
47053;SDS011;32811;52.382;5.270;2023-06-10T14:40:18;3.88;;;2.00;;
47053;SDS011;32811;52.382;5.270;2023-06-10T14:42:47;3.55;;;1.98;;
47053;SDS011;32811;52.382;5.270;2023-06-10T14:45:14;7.15;;;2.30;;
47053;SDS011;32811;52.382;5.270;2023-06-10T14:47:41;3.45;;;1.98;;
47053;SDS011;32811;52.382;5.270;2023-06-10T14:50:08;7.47;;;2.42;;
47053;SDS011;32811;52.382;5.270;2023-06-10T14:52:35;4.55;;;1.60;;
47053;SDS011;32811;52.382;5.270;2023-06-10T14:55:01;2.47;;;1.65;;
47053;SDS011;32811;52.382;5.270;2023-06-10T14:57:28;2.83;;;1.75;;
47053;SDS011;32811;52.382;5.270;2023-06-10T14:59:55;4.20;;;2.13;;
47053;SDS011;32811;52.382;5.270;2023-06-10T15:02:22;5.03;;;2.55;;
47053;SDS011;32811;52.382;5.270;2023-06-10T15:04:49;6.78;;;2.47;;
47053;SDS011;32811;52.382;5.270;2023-06-10T15:07:16;4.05;;;1.92;;